Time;durP1;ratioP1;P1;durP2;ratioP2;P2;SDS_P1;SDS_P2;PMS_P1;PMS_P2;Temp;Humidity;BMP_temperature;BMP_pressure;BME280_temperature;BME280_humidity;BME280_pressure;Samples;Min_cycle;Max_cycle;Signal;HPM_P1;HPM_P2
2022/11/14 00:00:29;;;;;;;100.20;34.70;;;;;;;6.46;87.25;101849.95;106978;1243;108036;-73
2022/11/14 00:02:59;;;;;;;109.90;35.80;;;;;;;6.49;87.23;101844.08;106830;1243;97776;-73
2022/11/14 00:05:24;;;;;;;103.90;37.40;;;;;;;6.51;87.28;101842.27;106863;1244;141480;-74
2022/11/14 00:07:49;;;;;;;106.10;36.50;;;;;;;6.54;87.36;101840.66;106842;1248;97831;-74
2022/11/14 00:10:15;;;;;;;107.50;35.40;;;;;;;6.55;87.33;101837.28;106809;1247;138651;-74
2022/11/14 00:12:41;;;;;;;108.90;35.70;;;;;;;6.58;87.40;101836.90;106875;1257;99083;-74
2022/11/14 00:15:08;;;;;;;105.50;36.00;;;;;;;6.59;87.39;101838.31;106979;1238;97826;-74
2022/11/14 00:17:33;;;;;;;96.30;34.20;;;;;;;6.60;87.36;101830.13;106805;1247;139019;-74
2022/11/14 00:19:59;;;;;;;97.80;36.90;;;;;;;6.61;87.51;101824.97;106919;1247;98649;-74
2022/11/14 00:22:24;;;;;;;99.00;34.00;;;;;;;6.63;87.42;101818.21;106843;1248;138333;-74
2022/11/14 00:24:49;;;;;;;109.00;36.60;;;;;;;6.64;87.50;101815.36;106832;1241;97637;-74
2022/11/14 00:27:15;;;;;;;95.10;34.20;;;;;;;6.65;87.50;101808.42;107007;1251;97751;-74
2022/11/14 00:29:40;;;;;;;105.40;35.70;;;;;;;6.65;87.53;101808.59;106789;1250;140204;-74
2022/11/14 00:32:06;;;;;;;104.90;36.20;;;;;;;6.66;87.54;101808.23;106951;1243;97706;-74
2022/11/14 00:34:32;;;;;;;99.50;35.70;;;;;;;6.66;87.63;101808.77;106750;1233;139347;-74
2022/11/14 00:36:57;;;;;;;114.40;38.30;;;;;;;6.67;87.57;101803.43;106739;1242;98297;-75
2022/11/14 00:39:22;;;;;;;101.90;36.70;;;;;;;6.68;87.73;101799.16;106765;1254;99233;-74
2022/11/14 00:41:48;;;;;;;95.20;34.00;;;;;;;6.68;87.69;101796.67;106705;1241;138869;-74
2022/11/14 00:44:13;;;;;;;112.20;38.30;;;;;;;6.67;87.68;101792.60;106748;1251;97623;-74
2022/11/14 00:46:38;;;;;;;102.20;34.90;;;;;;;6.68;87.72;101791.88;106683;1256;142468;-74
2022/11/14 00:49:03;;;;;;;106.00;34.50;;;;;;;6.68;87.70;101790.10;106881;1238;97716;-74
2022/11/14 00:51:29;;;;;;;104.60;36.30;;;;;;;6.67;87.74;101786.38;106821;1237;138992;-74
2022/11/14 00:53:54;;;;;;;104.20;35.60;;;;;;;6.66;87.75;101784.43;106911;1248;109011;-74
2022/11/14 00:56:20;;;;;;;92.90;33.70;;;;;;;6.67;87.73;101779.81;106894;1244;97717;-74
2022/11/14 00:58:45;;;;;;;110.60;38.00;;;;;;;6.67;87.87;101779.10;106838;1246;138212;-73
2022/11/14 01:01:11;;;;;;;108.30;36.60;;;;;;;6.68;87.90;101775.89;106861;1244;97611;-73
2022/11/14 01:03:36;;;;;;;115.20;38.90;;;;;;;6.68;87.83;101772.34;106853;1241;138909;-73
2022/11/14 01:06:07;;;;;;;117.00;40.30;;;;;;;6.68;88.00;101772.69;106882;1251;98270;-73
2022/11/14 01:08:33;;;;;;;109.80;37.70;;;;;;;6.69;88.03;101770.19;106910;1251;111327;-74
2022/11/14 01:10:59;;;;;;;110.60;38.30;;;;;;;6.68;88.01;101773.94;106778;1250;139329;-73
2022/11/14 01:13:25;;;;;;;100.70;33.90;;;;;;;6.68;87.98;101770.75;106987;1243;97714;-73
2022/11/14 01:15:51;;;;;;;108.80;36.70;;;;;;;6.67;88.03;101773.59;106759;1251;139285;-73
2022/11/14 01:18:19;;;;;;;108.70;37.90;;;;;;;6.66;88.12;101773.78;106879;1247;97722;-73
2022/11/14 01:20:46;;;;;;;107.80;36.00;;;;;;;6.66;88.07;101773.25;107013;1249;97749;-74
2022/11/14 01:23:14;;;;;;;93.60;33.70;;;;;;;6.67;88.08;101771.82;106743;1244;138725;-74
2022/11/14 01:25:40;;;;;;;111.60;38.90;;;;;;;6.66;88.17;101773.25;106888;1243;97720;-73
2022/11/14 01:28:08;;;;;;;109.20;39.80;;;;;;;6.66;88.09;101772.01;106821;1243;139928;-73
2022/11/14 01:30:33;;;;;;;97.00;35.30;;;;;;;6.68;88.18;101775.54;106908;1244;97688;-74
2022/11/14 01:32:59;;;;;;;110.30;38.40;;;;;;;6.70;88.36;101769.30;106878;1243;97723;-74
2022/11/14 01:35:25;;;;;;;105.00;36.50;;;;;;;6.71;88.27;101760.77;106751;1241;140877;-73
2022/11/14 01:37:50;;;;;;;105.80;35.90;;;;;;;6.72;88.23;101756.14;106860;1243;97721;-74
2022/11/14 01:40:15;;;;;;;115.30;37.00;;;;;;;6.72;88.28;101752.76;106831;1244;140640;-73
2022/11/14 01:42:41;;;;;;;104.70;36.60;;;;;;;6.73;88.23;101757.02;106833;1243;97637;-73
2022/11/14 01:45:44;;;;;;;101.00;35.10;;;;;;;6.73;88.23;101753.65;106911;1245;97699;-73
2022/11/14 01:48:24;;;;;;;104.90;37.50;;;;;;;6.73;88.28;101748.48;106865;1245;111440;-73
2022/11/14 01:50:59;;;;;;;109.30;37.90;;;;;;;6.73;88.47;101753.11;106860;1251;99485;-73
2022/11/14 01:53:25;;;;;;;107.70;38.00;;;;;;;6.73;88.32;101753.11;106775;1251;143532;-73
2022/11/14 01:55:53;;;;;;;102.60;36.00;;;;;;;6.72;88.37;101750.64;106956;1246;97646;-73
2022/11/14 01:58:19;;;;;;;99.40;35.70;;;;;;;6.73;88.41;101744.05;106766;1243;143318;-73
2022/11/14 02:00:45;;;;;;;107.40;36.00;;;;;;;6.71;88.40;101741.04;106945;1243;97604;-74
2022/11/14 02:03:12;;;;;;;114.20;36.30;;;;;;;6.68;88.36;101741.25;106934;1241;98078;-74
2022/11/14 02:05:39;;;;;;;98.10;33.30;;;;;;;6.68;88.42;101742.15;106753;1244;142934;-74
2022/11/14 02:08:04;;;;;;;112.40;38.10;;;;;;;6.68;88.50;101738.42;106748;1241;97730;-74
2022/11/14 02:10:29;;;;;;;103.00;37.50;;;;;;;6.68;88.49;101730.25;106835;1236;138367;-74
2022/11/14 02:12:55;;;;;;;93.80;34.80;;;;;;;6.70;88.52;101725.77;106833;1238;97713;-70
2022/11/14 02:15:20;;;;;;;106.30;38.50;;;;;;;6.70;88.54;101723.13;106925;1244;97731;-69
2022/11/14 02:17:46;;;;;;;112.30;38.80;;;;;;;6.69;88.37;101721.54;106801;1246;142552;-69
2022/11/14 02:20:11;;;;;;;109.20;37.50;;;;;;;6.68;88.45;101716.21;106875;1244;97676;-69
2022/11/14 02:22:38;;;;;;;110.70;38.90;;;;;;;6.67;88.56;101713.20;106786;1245;138529;-70
2022/11/14 02:25:04;;;;;;;116.60;38.30;;;;;;;6.66;88.52;101710.56;106985;1244;97665;-63
2022/11/14 02:27:32;;;;;;;109.30;38.10;;;;;;;6.65;88.50;101706.65;106970;1231;97624;-63
2022/11/14 02:30:05;;;;;;;103.00;36.90;;;;;;;6.63;88.55;101705.42;106872;1251;97649;-63
2022/11/14 02:32:31;;;;;;;109.10;40.70;;;;;;;6.61;88.40;101699.23;106895;1251;107549;-63
2022/11/14 02:34:56;;;;;;;106.50;38.00;;;;;;;6.58;88.53;101693.95;107151;1258;138587;-63
2022/11/14 02:37:21;;;;;;;120.60;40.30;;;;;;;6.55;88.62;101693.44;107405;1244;97612;-63
2022/11/14 02:39:47;;;;;;;110.30;42.70;;;;;;;6.55;88.61;101689.72;107164;1243;139953;-63
2022/11/14 02:42:12;;;;;;;117.50;39.60;;;;;;;6.55;88.69;101688.29;107362;1243;97565;-63
2022/11/14 02:44:37;;;;;;;112.20;40.00;;;;;;;6.56;88.62;101685.44;107323;1238;97699;-63
2022/11/14 02:47:03;;;;;;;121.40;42.40;;;;;;;6.56;88.67;101679.05;107189;1247;138694;-63
2022/11/14 02:49:28;;;;;;;113.20;41.60;;;;;;;6.55;88.62;101677.28;107110;1245;97722;-63
2022/11/14 02:51:53;;;;;;;112.30;39.90;;;;;;;6.55;88.60;101680.66;106820;1244;143538;-63
2022/11/14 02:54:19;;;;;;;107.60;38.60;;;;;;;6.54;88.69;101679.77;107361;1243;97606;-63
2022/11/14 02:56:44;;;;;;;108.60;40.20;;;;;;;6.54;88.79;101675.52;107250;1244;98235;-64
2022/11/14 02:59:09;;;;;;;107.40;40.80;;;;;;;6.54;88.75;101667.89;107234;1251;142298;-63
2022/11/14 03:01:34;;;;;;;109.10;39.20;;;;;;;6.51;88.70;101659.03;107246;1251;98117;-63
2022/11/14 03:04:00;;;;;;;112.30;37.90;;;;;;;6.49;88.65;101663.48;107179;1243;142798;-63
2022/11/14 03:06:25;;;;;;;119.30;42.00;;;;;;;6.46;88.72;101657.66;107315;1244;97826;-63
2022/11/14 03:08:50;;;;;;;110.40;39.70;;;;;;;6.46;88.68;101652.16;107251;1243;97728;-63
2022/11/14 03:11:15;;;;;;;102.50;38.80;;;;;;;6.45;88.76;101650.21;107290;1244;138986;-63
2022/11/14 03:13:41;;;;;;;122.70;41.90;;;;;;;6.42;88.77;101654.51;107236;1244;97597;-63
2022/11/14 03:16:10;;;;;;;112.80;40.10;;;;;;;6.40;88.71;101648.67;107182;1251;138671;-64
2022/11/14 03:18:36;;;;;;;109.10;39.90;;;;;;;6.39;88.76;101648.33;107280;1237;97822;-63
2022/11/14 03:21:09;;;;;;;121.30;43.10;;;;;;;6.39;88.73;101643.17;107276;1243;97440;-63
2022/11/14 03:23:35;;;;;;;122.70;43.90;;;;;;;6.40;88.89;101645.66;107219;1244;139623;-63
2022/11/14 03:26:02;;;;;;;116.00;42.60;;;;;;;6.41;89.08;101641.55;107307;1243;97612;-63
2022/11/14 03:28:28;;;;;;;119.80;43.50;;;;;;;6.41;88.99;101649.90;107116;1248;139381;-63
2022/11/14 03:30:53;;;;;;;124.80;42.50;;;;;;;6.42;88.90;101658.59;107282;1244;97622;-63
2022/11/14 03:33:19;;;;;;;111.30;39.70;;;;;;;6.40;88.82;101658.79;107242;1244;97508;-63
2022/11/14 03:35:44;;;;;;;114.70;42.40;;;;;;;6.36;88.83;101652.26;107165;1252;141803;-63
2022/11/14 03:38:09;;;;;;;110.10;41.40;;;;;;;6.29;88.94;101656.23;107287;1251;99315;-64
2022/11/14 03:40:38;;;;;;;121.70;44.30;;;;;;;6.22;88.76;101649.91;107199;1244;139278;-64
2022/11/14 03:43:04;;;;;;;116.40;43.10;;;;;;;6.17;88.71;101647.46;107345;1237;110978;-63
2022/11/14 03:45:29;;;;;;;121.60;42.70;;;;;;;6.18;88.91;101646.23;107296;1251;97658;-64
2022/11/14 03:47:55;;;;;;;113.70;40.40;;;;;;;6.15;88.86;101642.70;107053;1244;138722;-63
2022/11/14 03:50:20;;;;;;;118.60;43.80;;;;;;;6.12;88.79;101639.00;107301;1243;96887;-64
2022/11/14 03:52:48;;;;;;;126.00;41.20;;;;;;;6.08;88.75;101633.54;107211;1250;138364;-63
2022/11/14 03:55:14;;;;;;;117.80;38.60;;;;;;;6.00;88.66;101628.12;107326;1244;106686;-63
2022/11/14 03:57:39;;;;;;;115.40;41.20;;;;;;;5.94;88.69;101630.65;107130;1243;140372;-63
2022/11/14 04:00:05;;;;;;;114.90;40.70;;;;;;;5.92;88.98;101634.92;107348;1243;97718;-63
2022/11/14 04:02:30;;;;;;;114.50;40.00;;;;;;;5.88;88.85;101627.84;107277;1241;97738;-63
2022/11/14 04:04:55;;;;;;;111.80;40.90;;;;;;;5.84;88.87;101628.39;107220;1238;138530;-63
2022/11/14 04:07:21;;;;;;;120.40;42.80;;;;;;;5.84;89.04;101625.02;107346;1235;97738;-63
2022/11/14 04:09:47;;;;;;;121.80;40.90;;;;;;;5.84;88.97;101622.89;107164;1244;140222;-63
2022/11/14 04:12:12;;;;;;;133.40;42.50;;;;;;;5.83;89.01;101628.59;107372;1230;97703;-63
2022/11/14 04:14:38;;;;;;;128.30;42.40;;;;;;;5.80;88.98;101629.84;107114;1251;97623;-64
2022/11/14 04:17:03;;;;;;;134.50;42.60;;;;;;;5.82;89.12;101630.00;107228;1246;138439;-63
2022/11/14 04:19:28;;;;;;;117.90;39.70;;;;;;;5.83;89.22;101628.04;107421;1248;98330;-63
2022/11/14 04:21:54;;;;;;;122.10;42.10;;;;;;;5.83;89.18;101629.46;107166;1238;141715;-64
2022/11/14 04:24:19;;;;;;;116.30;40.60;;;;;;;5.84;89.19;101623.95;107384;1243;97746;-64
2022/11/14 04:26:44;;;;;;;115.20;40.70;;;;;;;5.83;89.09;101621.14;106966;1243;96894;-64
2022/11/14 04:29:09;;;;;;;113.90;38.30;;;;;;;5.82;89.08;101618.30;106855;1231;139034;-64
2022/11/14 04:31:35;;;;;;;124.10;41.20;;;;;;;5.80;89.05;101612.64;107271;1244;96015;-61
2022/11/14 04:34:00;;;;;;;115.80;41.00;;;;;;;5.78;89.21;101612.48;106860;1243;138686;-62
2022/11/14 04:36:25;;;;;;;117.50;38.80;;;;;;;5.77;89.23;101609.83;107369;1244;99206;-63
2022/11/14 04:38:50;;;;;;;112.00;39.00;;;;;;;5.77;89.15;101613.90;106913;1251;97701;-62
2022/11/14 04:41:16;;;;;;;119.80;38.40;;;;;;;5.75;89.23;101615.16;107242;1244;139909;-62
2022/11/14 04:43:41;;;;;;;108.30;35.20;;;;;;;5.75;89.28;101617.11;106948;1244;97489;-62
2022/11/14 04:46:06;;;;;;;111.40;38.80;;;;;;;5.74;89.22;101618.19;106778;1235;138600;-62
2022/11/14 04:48:31;;;;;;;108.50;34.70;;;;;;;5.71;89.19;101612.54;106882;1244;97699;-62
2022/11/14 04:50:57;;;;;;;111.40;37.50;;;;;;;5.68;89.39;101610.79;106876;1254;96460;-63
2022/11/14 04:53:22;;;;;;;117.10;38.90;;;;;;;5.68;89.52;101610.42;106852;1244;141371;-62
2022/11/14 04:55:47;;;;;;;108.70;37.90;;;;;;;5.71;89.44;101612.35;106890;1244;98068;-62
2022/11/14 04:58:13;;;;;;;106.60;35.70;;;;;;;5.74;89.51;101611.09;106838;1244;140246;-62
2022/11/14 05:00:38;;;;;;;108.60;34.60;;;;;;;5.74;89.50;101611.45;106867;1243;97979;-62
2022/11/14 05:03:04;;;;;;;118.20;38.90;;;;;;;5.74;89.55;101607.90;106835;1247;97618;-65
2022/11/14 05:05:30;;;;;;;111.70;36.00;;;;;;;5.73;89.44;101603.48;106802;1251;139139;-62
2022/11/14 05:07:56;;;;;;;110.30;35.70;;;;;;;5.72;89.47;101606.85;106873;1243;97821;-62
2022/11/14 05:10:21;;;;;;;103.70;34.90;;;;;;;5.73;89.53;101606.66;106774;1243;139434;-64
2022/11/14 05:12:46;;;;;;;111.70;36.10;;;;;;;5.72;89.60;101605.08;106927;1243;97742;-63
2022/11/14 05:15:12;;;;;;;112.50;36.40;;;;;;;5.73;89.57;101599.58;106857;1243;97846;-62
2022/11/14 05:17:37;;;;;;;110.70;35.60;;;;;;;5.71;89.63;101597.98;106816;1246;143184;-63
2022/11/14 05:20:03;;;;;;;105.90;36.50;;;;;;;5.71;89.53;101596.05;106894;1244;97753;-62
2022/11/14 05:22:28;;;;;;;111.10;37.70;;;;;;;5.72;89.62;101595.67;106755;1245;139467;-63
2022/11/14 05:24:53;;;;;;;105.50;34.80;;;;;;;5.75;89.85;101587.67;107007;1251;97682;-63
2022/11/14 05:27:18;;;;;;;117.50;39.00;;;;;;;5.77;89.84;101582.51;107354;1243;97668;-64
2022/11/14 05:29:44;;;;;;;111.80;37.20;;;;;;;5.81;89.95;101581.06;107238;1244;139632;-63
2022/11/14 05:32:09;;;;;;;128.90;39.50;;;;;;;5.84;89.84;101579.43;107294;1237;97613;-63
2022/11/14 05:34:34;;;;;;;111.30;37.70;;;;;;;5.85;89.82;101584.39;107172;1237;138401;-62
2022/11/14 05:37:00;;;;;;;120.40;38.10;;;;;;;5.88;90.01;101587.22;106950;1244;97743;-63
2022/11/14 05:39:25;;;;;;;118.70;39.40;;;;;;;5.92;89.96;101588.27;106826;1236;97799;-63
2022/11/14 05:41:51;;;;;;;101.80;34.20;;;;;;;5.94;89.94;101587.36;106773;1243;138720;-62
2022/11/14 05:44:16;;;;;;;120.60;38.30;;;;;;;5.93;89.74;101588.09;106826;1243;98269;-63
2022/11/14 05:46:41;;;;;;;99.60;33.40;;;;;;;5.90;89.77;101585.63;106740;1244;138697;-63
2022/11/14 05:49:06;;;;;;;116.00;36.50;;;;;;;5.87;89.83;101588.80;106870;1245;97624;-63
2022/11/14 05:51:32;;;;;;;118.70;39.70;;;;;;;5.88;90.02;101593.59;106667;1240;145270;-63
2022/11/14 05:53:57;;;;;;;115.80;37.90;;;;;;;5.91;90.02;101596.44;107517;1231;97641;-64
2022/11/14 05:56:22;;;;;;;117.40;37.30;;;;;;;5.89;89.91;101594.50;107358;1247;97706;-63
2022/11/14 05:58:48;;;;;;;108.50;35.40;;;;;;;5.90;89.86;101601.41;107241;1244;140068;-63
2022/11/14 06:01:16;;;;;;;115.80;36.90;;;;;;;5.89;90.04;101600.36;107230;1237;110757;-63
2022/11/14 06:03:44;;;;;;;111.30;36.00;;;;;;;5.89;90.06;101599.28;107149;1253;138766;-63
2022/11/14 06:06:15;;;;;;;116.70;36.60;;;;;;;5.86;90.02;101596.63;107268;1245;106594;-63
2022/11/14 06:08:41;;;;;;;115.90;38.20;;;;;;;5.85;90.05;101600.52;107246;1251;97837;-64
2022/11/14 06:11:10;;;;;;;106.10;35.30;;;;;;;5.84;90.00;101600.19;107237;1245;140042;-65
2022/11/14 06:13:36;;;;;;;114.20;36.50;;;;;;;5.82;89.98;101597.19;107336;1244;111433;-63
2022/11/14 06:16:08;;;;;;;118.10;38.50;;;;;;;5.81;90.11;101598.45;107261;1244;139513;-63
2022/11/14 06:18:35;;;;;;;114.70;38.10;;;;;;;5.82;90.04;101602.34;107360;1230;106492;-63
2022/11/14 06:21:06;;;;;;;110.60;37.90;;;;;;;5.82;90.21;101595.95;107366;1235;96498;-63
2022/11/14 06:23:31;;;;;;;114.80;38.00;;;;;;;5.84;90.12;101592.56;107259;1235;139112;-63
2022/11/14 06:26:01;;;;;;;122.60;37.90;;;;;;;5.83;90.11;101592.75;107277;1236;99510;-63
2022/11/14 06:28:27;;;;;;;109.60;38.00;;;;;;;5.84;90.12;101600.02;107220;1238;139217;-63
2022/11/14 06:30:56;;;;;;;114.00;38.60;;;;;;;5.84;90.28;101597.35;107287;1243;97580;-63
2022/11/14 06:33:22;;;;;;;98.70;35.10;;;;;;;5.86;90.23;101596.44;107352;1244;97623;-63
2022/11/14 06:35:47;;;;;;;110.90;36.10;;;;;;;5.86;90.16;101592.02;107219;1244;138087;-62
2022/11/14 06:38:12;;;;;;;102.50;37.90;;;;;;;5.84;90.08;101593.81;107455;1237;97633;-63
2022/11/14 06:40:37;;;;;;;102.00;37.00;;;;;;;5.82;90.08;101592.23;107215;1244;138511;-63
2022/11/14 06:43:02;;;;;;;108.60;37.50;;;;;;;5.83;90.26;101601.44;107306;1239;98093;-63
2022/11/14 06:45:28;;;;;;;99.60;36.50;;;;;;;5.82;90.27;101597.37;107236;1253;97617;-63
2022/11/14 06:47:57;;;;;;;99.70;37.10;;;;;;;5.81;90.29;101598.09;107126;1251;138584;-63
2022/11/14 06:50:23;;;;;;;105.90;37.00;;;;;;;5.79;90.33;101597.39;107251;1250;97417;-63
2022/11/14 06:52:48;;;;;;;112.70;37.40;;;;;;;5.79;90.24;101602.54;107218;1239;138783;-63
2022/11/14 06:55:13;;;;;;;116.50;39.20;;;;;;;5.79;90.34;101596.51;107387;1244;97701;-63
2022/11/14 06:57:39;;;;;;;111.10;39.30;;;;;;;5.83;90.51;101594.70;107263;1250;138867;-63
2022/11/14 07:00:04;;;;;;;107.20;38.30;;;;;;;5.86;90.52;101594.50;107491;1243;97751;-63
2022/11/14 07:02:30;;;;;;;114.30;36.80;;;;;;;5.91;90.60;101595.91;107338;1244;110764;-63
2022/11/14 07:04:55;;;;;;;98.80;35.80;;;;;;;5.91;90.51;101589.52;107237;1237;140770;-63
2022/11/14 07:07:20;;;;;;;103.10;37.00;;;;;;;5.88;90.36;101585.62;107428;1227;97648;-63
2022/11/14 07:09:45;;;;;;;97.30;37.20;;;;;;;5.89;90.43;101588.28;107204;1237;139068;-63
2022/11/14 07:12:11;;;;;;;106.60;36.50;;;;;;;5.89;90.35;101592.71;107394;1244;97869;-63
2022/11/14 07:14:36;;;;;;;122.50;39.20;;;;;;;5.89;90.46;101589.89;106721;1228;97682;-63
2022/11/14 07:17:02;;;;;;;89.90;34.00;;;;;;;5.91;90.35;101594.30;107040;1243;138557;-63
2022/11/14 07:19:27;;;;;;;100.80;36.00;;;;;;;5.90;90.37;101588.28;107508;1228;97599;-63
2022/11/14 07:21:52;;;;;;;101.50;36.40;;;;;;;5.85;90.21;101579.95;107144;1241;139988;-64
2022/11/14 07:24:17;;;;;;;93.30;34.00;;;;;;;5.86;90.44;101580.65;107348;1235;97651;-63
2022/11/14 07:26:44;;;;;;;87.70;32.50;;;;;;;5.87;90.49;101580.48;107303;1237;98380;-64
2022/11/14 07:29:09;;;;;;;90.60;33.30;;;;;;;5.86;90.51;101577.11;107233;1241;138601;-63
2022/11/14 07:31:35;;;;;;;91.10;32.60;;;;;;;5.86;90.43;101573.39;107394;1235;98486;-63
2022/11/14 07:34:00;;;;;;;88.90;31.00;;;;;;;5.87;90.40;101572.33;107114;1235;140278;-63
2022/11/14 07:36:25;;;;;;;90.90;31.90;;;;;;;5.85;90.47;101568.27;107401;1244;96527;-63
2022/11/14 07:38:50;;;;;;;81.90;29.90;;;;;;;5.82;90.43;101570.23;107393;1244;99380;-63
2022/11/14 07:41:17;;;;;;;90.10;31.70;;;;;;;5.80;90.39;101567.77;107366;1247;138454;-64
2022/11/14 07:43:43;;;;;;;86.80;32.00;;;;;;;5.80;90.51;101570.42;107542;1244;97615;-64
2022/11/14 07:46:16;;;;;;;82.20;31.80;;;;;;;5.81;90.45;101567.23;107341;1230;140455;-64
2022/11/14 07:48:42;;;;;;;76.60;29.20;;;;;;;5.80;90.38;101567.95;107472;1244;99750;-63
2022/11/14 07:51:17;;;;;;;84.90;29.90;;;;;;;5.80;90.48;101565.11;107438;1247;97612;-64
2022/11/14 07:53:43;;;;;;;83.00;30.00;;;;;;;5.82;90.55;101560.83;107293;1243;138716;-64
2022/11/14 07:56:09;;;;;;;76.80;27.60;;;;;;;5.82;90.57;101560.83;107435;1250;96517;-64
2022/11/14 07:58:36;;;;;;;89.20;31.80;;;;;;;5.80;90.60;101560.33;107468;1244;138782;-63
2022/11/14 08:01:02;;;;;;;89.70;33.20;;;;;;;5.83;90.64;101559.58;106922;1237;107933;-63
2022/11/14 08:03:28;;;;;;;90.80;31.70;;;;;;;5.88;90.71;101562.75;107507;1243;97619;-63
2022/11/14 08:06:04;;;;;;;90.10;32.70;;;;;;;5.92;90.65;101565.39;107446;1243;138204;-63
2022/11/14 08:08:30;;;;;;;85.80;29.60;;;;;;;5.94;90.55;101556.32;107499;1244;100140;-63
2022/11/14 08:10:57;;;;;;;98.90;33.80;;;;;;;5.99;90.80;101553.61;107041;1236;139395;-64
2022/11/14 08:13:24;;;;;;;83.90;31.10;;;;;;;6.03;90.79;101555.88;107465;1238;97751;-63
2022/11/14 08:15:49;;;;;;;87.00;31.50;;;;;;;6.06;90.73;101565.42;107413;1243;138963;-64
2022/11/14 08:18:14;;;;;;;90.40;31.60;;;;;;;6.11;90.84;101569.10;107414;1245;98342;-65
2022/11/14 08:20:39;;;;;;;75.40;29.20;;;;;;;6.16;90.93;101560.70;107250;1238;96453;-65
2022/11/14 08:23:08;;;;;;;68.40;28.70;;;;;;;6.18;90.67;101554.48;107137;1236;142716;-64
2022/11/14 08:25:33;;;;;;;80.30;29.80;;;;;;;6.16;90.82;101562.13;107189;1237;110990;-65
2022/11/14 08:27:59;;;;;;;80.10;31.70;;;;;;;6.16;90.67;101556.98;107104;1229;138666;-65
2022/11/14 08:30:25;;;;;;;74.50;29.10;;;;;;;6.16;90.64;101555.55;107144;1233;96909;-64
2022/11/14 08:32:50;;;;;;;89.00;31.30;;;;;;;6.18;90.69;101550.92;107146;1238;96637;-64
2022/11/14 08:35:16;;;;;;;79.40;30.20;;;;;;;6.21;90.69;101545.76;107122;1246;138825;-64
2022/11/14 08:37:41;;;;;;;83.10;30.70;;;;;;;6.21;90.61;101542.38;107243;1244;97756;-64
2022/11/14 08:40:07;;;;;;;75.70;29.20;;;;;;;6.21;90.53;101535.80;106904;1246;143386;-64
2022/11/14 08:42:32;;;;;;;85.70;29.40;;;;;;;6.21;90.54;101532.43;107225;1245;97639;-64
2022/11/14 08:44:58;;;;;;;73.20;29.10;;;;;;;6.21;90.69;101532.63;107190;1237;98386;-65
2022/11/14 08:47:23;;;;;;;78.40;30.60;;;;;;;6.25;90.71;101539.49;107098;1236;139107;-64
2022/11/14 08:49:48;;;;;;;83.10;31.50;;;;;;;6.28;90.66;101541.41;107272;1253;98048;-64
2022/11/14 08:52:14;;;;;;;75.50;30.50;;;;;;;6.35;90.70;101545.23;107124;1253;138290;-65
2022/11/14 08:54:39;;;;;;;95.10;34.40;;;;;;;6.38;90.70;101540.76;107269;1253;97674;-65
2022/11/14 08:57:05;;;;;;;84.50;33.10;;;;;;;6.41;90.68;101541.08;107202;1245;97730;-65
2022/11/14 08:59:31;;;;;;;76.50;30.60;;;;;;;6.42;90.63;101539.65;107118;1237;138687;-65
2022/11/14 09:01:56;;;;;;;88.40;33.80;;;;;;;6.40;90.52;101541.61;107289;1238;97757;-64
2022/11/14 09:04:22;;;;;;;99.70;42.00;;;;;;;6.44;90.69;101544.41;107108;1236;138194;-64
2022/11/14 09:06:47;;;;;;;99.80;38.60;;;;;;;6.48;90.68;101546.50;107183;1246;97622;-65
2022/11/14 09:09:13;;;;;;;97.00;39.40;;;;;;;6.54;90.80;101544.30;107302;1252;97739;-64
2022/11/14 09:11:38;;;;;;;109.00;42.10;;;;;;;6.59;90.74;101538.37;107155;1238;141256;-64
2022/11/14 09:14:04;;;;;;;94.80;39.00;;;;;;;6.63;90.81;101535.65;107285;1236;97626;-65
2022/11/14 09:16:29;;;;;;;110.70;43.40;;;;;;;6.66;90.67;101529.04;107255;1243;138202;-65
2022/11/14 09:18:54;;;;;;;104.30;42.10;;;;;;;6.71;90.63;101531.83;107276;1246;97780;-65
2022/11/14 09:21:20;;;;;;;97.20;38.00;;;;;;;6.71;90.60;101529.15;107371;1246;97715;-64
2022/11/14 09:23:46;;;;;;;94.10;39.70;;;;;;;6.72;90.59;101529.86;107142;1230;138170;-64
2022/11/14 09:26:11;;;;;;;95.30;38.70;;;;;;;6.77;90.70;101529.96;107411;1238;97665;-65
2022/11/14 09:28:37;;;;;;;84.30;34.90;;;;;;;6.85;90.74;101520.61;107260;1230;138816;-66
2022/11/14 09:31:05;;;;;;;83.10;35.50;;;;;;;6.87;90.51;101511.89;107301;1235;97899;-64
2022/11/14 09:33:31;;;;;;;90.10;35.50;;;;;;;6.85;90.40;101511.55;107288;1246;97612;-65
2022/11/14 09:36:02;;;;;;;78.10;34.00;;;;;;;6.85;90.40;101505.52;107275;1236;97560;-65
2022/11/14 09:38:28;;;;;;;86.90;35.90;;;;;;;6.90;90.51;101497.63;107201;1244;111228;-65
2022/11/14 09:41:13;;;;;;;83.70;35.00;;;;;;;6.97;90.60;101495.21;107130;1251;139147;-65
2022/11/14 09:44:02;;;;;;;81.50;34.30;;;;;;;7.01;90.40;101490.17;107264;1244;107277;-65
2022/11/14 09:46:36;;;;;;;88.20;35.90;;;;;;;7.04;90.35;101485.14;107182;1235;138849;-65
2022/11/14 09:49:02;;;;;;;91.30;35.30;;;;;;;7.08;90.41;101479.23;107292;1251;97937;-64
2022/11/14 09:51:31;;;;;;;81.00;34.60;;;;;;;7.10;90.39;101487.02;107276;1235;98087;-64
2022/11/14 09:54:10;;;;;;;85.90;36.00;;;;;;;7.08;90.15;101480.66;107277;1235;104977;-65
2022/11/14 09:56:36;;;;;;;84.70;35.20;;;;;;;7.03;90.07;101480.90;107208;1237;106269;-65
2022/11/14 09:59:01;;;;;;;97.70;36.30;;;;;;;7.06;90.19;101475.70;107151;1244;139279;-65
2022/11/14 10:02:05;;;;;;;85.40;35.80;;;;;;;7.09;90.20;101467.48;107374;1244;97468;-65
2022/11/14 10:04:40;;;;;;;76.30;33.70;;;;;;;7.12;90.20;101466.00;107238;1238;141289;-65
2022/11/14 10:07:28;;;;;;;82.30;36.20;;;;;;;7.13;90.04;101466.35;107281;1237;106074;-65
2022/11/14 10:10:18;;;;;;;80.90;33.00;;;;;;;7.22;90.27;101466.20;107155;1235;139364;-65
2022/11/14 10:13:05;;;;;;;74.30;34.40;;;;;;;7.27;90.17;101461.33;107266;1237;97558;-65
2022/11/14 10:16:06;;;;;;;76.30;32.70;;;;;;;7.31;90.13;101458.94;107292;1238;110970;-65
2022/11/14 10:18:51;;;;;;;72.00;34.10;;;;;;;7.40;90.18;101453.45;107197;1237;99381;-64
2022/11/14 10:21:45;;;;;;;72.30;33.10;;;;;;;7.48;90.07;101448.14;107189;1236;107680;-64
2022/11/14 10:24:29;;;;;;;66.90;31.70;;;;;;;7.55;90.17;101444.30;107161;1247;97633;-64
2022/11/14 10:27:01;;;;;;;64.00;27.80;;;;;;;7.60;89.95;101444.91;107228;1245;97701;-65
2022/11/14 10:29:50;;;;;;;68.80;28.90;;;;;;;7.60;89.83;101444.74;106873;1237;138304;-64
2022/11/14 10:32:47;;;;;;;63.30;28.70;;;;;;;7.61;89.80;101445.42;107128;1252;99391;-65
2022/11/14 10:35:20;;;;;;;65.20;28.50;;;;;;;7.65;89.87;101439.85;107120;1246;138876;-64
2022/11/14 10:37:57;;;;;;;62.70;29.40;;;;;;;7.63;89.66;101436.86;107248;1245;97600;-64
2022/11/14 10:40:26;;;;;;;67.20;30.20;;;;;;;7.69;89.77;101435.68;107102;1242;138667;-65
2022/11/14 10:43:02;;;;;;;62.90;30.00;;;;;;;7.78;89.87;101430.34;107215;1237;111087;-64
2022/11/14 10:45:34;;;;;;;68.50;30.60;;;;;;;7.85;89.71;101424.30;107212;1236;99811;-65
2022/11/14 10:48:06;;;;;;;67.60;30.40;;;;;;;7.91;89.72;101425.25;107182;1246;107580;-65
2022/11/14 10:51:02;;;;;;;68.20;30.00;;;;;;;7.97;89.61;101428.68;107192;1246;96505;-63
2022/11/14 10:53:30;;;;;;;60.10;27.40;;;;;;;7.98;89.48;101427.61;107113;1236;138719;-63
2022/11/14 10:55:57;;;;;;;64.60;29.00;;;;;;;8.03;89.67;101421.45;107152;1236;110152;-64
2022/11/14 10:58:23;;;;;;;61.60;28.10;;;;;;;8.10;89.53;101425.75;107129;1246;139311;-64
2022/11/14 11:00:48;;;;;;;64.00;28.60;;;;;;;8.21;89.72;101426.77;107110;1239;99353;-64
2022/11/14 11:03:14;;;;;;;62.10;27.50;;;;;;;8.33;89.63;101425.10;107237;1236;98314;-64